sensor_id;sensor_type;location;lat;lon;timestamp;P1;durP1;ratioP1;P2;durP2;ratioP2
17520;SDS011;8878;-33.370;-70.552;2022-10-03T00:00:20;6.57;;;2.03;;
17520;SDS011;8878;-33.370;-70.552;2022-10-03T00:03:07;3.80;;;2.00;;
17520;SDS011;8878;-33.370;-70.552;2022-10-03T00:05:59;5.65;;;2.50;;
17520;SDS011;8878;-33.370;-70.552;2022-10-03T00:08:41;3.53;;;2.17;;
17520;SDS011;8878;-33.370;-70.552;2022-10-03T00:11:25;2.55;;;1.63;;
17520;SDS011;8878;-33.370;-70.552;2022-10-03T00:14:11;4.20;;;2.47;;
17520;SDS011;8878;-33.370;-70.552;2022-10-03T00:16:47;5.50;;;2.58;;
17520;SDS011;8878;-33.370;-70.552;2022-10-03T00:19:24;4.57;;;2.70;;
17520;SDS011;8878;-33.370;-70.552;2022-10-03T00:22:05;3.55;;;1.75;;
17520;SDS011;8878;-33.370;-70.552;2022-10-03T00:24:47;2.63;;;2.10;;
17520;SDS011;8878;-33.370;-70.552;2022-10-03T00:27:29;8.52;;;2.72;;
17520;SDS011;8878;-33.370;-70.552;2022-10-03T00:30:14;5.68;;;2.50;;
17520;SDS011;8878;-33.370;-70.552;2022-10-03T00:35:53;2.55;;;2.05;;
17520;SDS011;8878;-33.370;-70.552;2022-10-03T00:47:47;3.92;;;2.67;;
17520;SDS011;8878;-33.370;-70.552;2022-10-03T00:53:50;3.28;;;1.95;;
17520;SDS011;8878;-33.370;-70.552;2022-10-03T00:56:44;2.50;;;1.40;;
17520;SDS011;8878;-33.370;-70.552;2022-10-03T00:59:42;4.22;;;2.20;;
17520;SDS011;8878;-33.370;-70.552;2022-10-03T01:02:33;2.75;;;2.05;;
17520;SDS011;8878;-33.370;-70.552;2022-10-03T01:05:18;3.95;;;2.20;;
17520;SDS011;8878;-33.370;-70.552;2022-10-03T01:08:06;2.00;;;1.63;;
17520;SDS011;8878;-33.370;-70.552;2022-10-03T01:10:59;2.17;;;1.95;;
17520;SDS011;8878;-33.370;-70.552;2022-10-03T01:13:42;2.97;;;2.05;;
17520;SDS011;8878;-33.370;-70.552;2022-10-03T01:16:24;4.70;;;2.45;;
17520;SDS011;8878;-33.370;-70.552;2022-10-03T01:19:04;3.10;;;1.67;;
17520;SDS011;8878;-33.370;-70.552;2022-10-03T01:21:59;2.22;;;1.73;;
17520;SDS011;8878;-33.370;-70.552;2022-10-03T01:24:50;3.70;;;1.75;;
17520;SDS011;8878;-33.370;-70.552;2022-10-03T01:27:27;3.83;;;1.98;;
17520;SDS011;8878;-33.370;-70.552;2022-10-03T01:30:28;4.60;;;2.10;;
17520;SDS011;8878;-33.370;-70.552;2022-10-03T01:33:05;3.15;;;1.55;;
17520;SDS011;8878;-33.370;-70.552;2022-10-03T01:35:44;4.88;;;2.03;;
17520;SDS011;8878;-33.370;-70.552;2022-10-03T01:38:24;4.63;;;2.15;;
17520;SDS011;8878;-33.370;-70.552;2022-10-03T01:41:02;2.53;;;1.35;;
17520;SDS011;8878;-33.370;-70.552;2022-10-03T01:43:37;1.83;;;1.65;;
17520;SDS011;8878;-33.370;-70.552;2022-10-03T01:46:14;4.80;;;1.90;;
17520;SDS011;8878;-33.370;-70.552;2022-10-03T01:48:50;5.45;;;2.20;;
17520;SDS011;8878;-33.370;-70.552;2022-10-03T01:51:26;3.00;;;1.73;;
17520;SDS011;8878;-33.370;-70.552;2022-10-03T01:54:05;3.47;;;1.70;;
17520;SDS011;8878;-33.370;-70.552;2022-10-03T01:56:41;2.10;;;1.42;;
17520;SDS011;8878;-33.370;-70.552;2022-10-03T01:59:21;6.68;;;1.67;;
17520;SDS011;8878;-33.370;-70.552;2022-10-03T02:02:04;2.70;;;1.70;;
17520;SDS011;8878;-33.370;-70.552;2022-10-03T02:04:44;1.38;;;1.33;;
17520;SDS011;8878;-33.370;-70.552;2022-10-03T02:07:19;4.30;;;2.20;;
17520;SDS011;8878;-33.370;-70.552;2022-10-03T02:09:59;1.83;;;1.60;;
17520;SDS011;8878;-33.370;-70.552;2022-10-03T02:12:36;2.40;;;1.67;;
17520;SDS011;8878;-33.370;-70.552;2022-10-03T02:15:15;1.65;;;1.17;;
17520;SDS011;8878;-33.370;-70.552;2022-10-03T02:17:53;1.92;;;1.60;;
17520;SDS011;8878;-33.370;-70.552;2022-10-03T02:20:27;1.80;;;1.70;;
17520;SDS011;8878;-33.370;-70.552;2022-10-03T02:23:01;2.22;;;2.03;;
17520;SDS011;8878;-33.370;-70.552;2022-10-03T02:26:13;2.55;;;1.30;;
17520;SDS011;8878;-33.370;-70.552;2022-10-03T02:32:16;2.90;;;1.58;;
17520;SDS011;8878;-33.370;-70.552;2022-10-03T02:35:30;2.40;;;1.60;;
17520;SDS011;8878;-33.370;-70.552;2022-10-03T02:38:18;3.28;;;1.85;;
17520;SDS011;8878;-33.370;-70.552;2022-10-03T02:41:27;4.78;;;2.00;;
17520;SDS011;8878;-33.370;-70.552;2022-10-03T02:44:19;2.08;;;1.88;;
17520;SDS011;8878;-33.370;-70.552;2022-10-03T02:50:36;3.92;;;2.40;;
17520;SDS011;8878;-33.370;-70.552;2022-10-03T02:59:44;2.10;;;1.42;;
17520;SDS011;8878;-33.370;-70.552;2022-10-03T03:09:09;6.80;;;2.85;;
17520;SDS011;8878;-33.370;-70.552;2022-10-03T03:12:18;5.03;;;2.53;;
17520;SDS011;8878;-33.370;-70.552;2022-10-03T03:15:35;8.27;;;2.75;;
17520;SDS011;8878;-33.370;-70.552;2022-10-03T03:18:34;1.95;;;1.75;;
17520;SDS011;8878;-33.370;-70.552;2022-10-03T03:21:14;2.60;;;2.05;;
17520;SDS011;8878;-33.370;-70.552;2022-10-03T03:24:12;4.63;;;1.70;;
17520;SDS011;8878;-33.370;-70.552;2022-10-03T03:27:00;6.88;;;2.13;;
17520;SDS011;8878;-33.370;-70.552;2022-10-03T03:29:41;8.82;;;3.13;;
17520;SDS011;8878;-33.370;-70.552;2022-10-03T03:32:24;2.95;;;1.67;;
17520;SDS011;8878;-33.370;-70.552;2022-10-03T03:35:06;10.68;;;3.20;;
17520;SDS011;8878;-33.370;-70.552;2022-10-03T03:37:44;7.35;;;2.25;;
17520;SDS011;8878;-33.370;-70.552;2022-10-03T03:40:27;2.67;;;2.03;;
17520;SDS011;8878;-33.370;-70.552;2022-10-03T03:43:20;2.92;;;1.75;;
17520;SDS011;8878;-33.370;-70.552;2022-10-03T03:46:07;1.55;;;1.45;;
17520;SDS011;8878;-33.370;-70.552;2022-10-03T03:48:55;4.28;;;1.95;;
17520;SDS011;8878;-33.370;-70.552;2022-10-03T03:51:32;3.17;;;1.45;;
17520;SDS011;8878;-33.370;-70.552;2022-10-03T03:57:15;8.23;;;1.70;;
17520;SDS011;8878;-33.370;-70.552;2022-10-03T04:00:11;2.15;;;1.60;;
17520;SDS011;8878;-33.370;-70.552;2022-10-03T04:02:56;3.85;;;2.17;;
17520;SDS011;8878;-33.370;-70.552;2022-10-03T04:05:41;3.65;;;1.90;;
17520;SDS011;8878;-33.370;-70.552;2022-10-03T04:08:25;2.72;;;1.75;;
17520;SDS011;8878;-33.370;-70.552;2022-10-03T04:11:18;2.40;;;1.70;;
17520;SDS011;8878;-33.370;-70.552;2022-10-03T04:14:01;4.38;;;2.28;;
17520;SDS011;8878;-33.370;-70.552;2022-10-03T04:17:02;2.95;;;1.73;;
17520;SDS011;8878;-33.370;-70.552;2022-10-03T04:20:01;9.20;;;2.13;;
17520;SDS011;8878;-33.370;-70.552;2022-10-03T04:23:02;4.90;;;1.73;;
17520;SDS011;8878;-33.370;-70.552;2022-10-03T04:25:49;3.60;;;2.28;;
17520;SDS011;8878;-33.370;-70.552;2022-10-03T04:28:36;5.25;;;2.47;;
17520;SDS011;8878;-33.370;-70.552;2022-10-03T04:31:25;2.35;;;2.08;;
17520;SDS011;8878;-33.370;-70.552;2022-10-03T04:34:10;6.68;;;2.03;;
17520;SDS011;8878;-33.370;-70.552;2022-10-03T04:36:54;6.65;;;2.33;;
17520;SDS011;8878;-33.370;-70.552;2022-10-03T04:39:43;1.38;;;1.33;;
17520;SDS011;8878;-33.370;-70.552;2022-10-03T04:42:22;1.42;;;1.30;;
17520;SDS011;8878;-33.370;-70.552;2022-10-03T04:48:12;7.35;;;2.47;;
17520;SDS011;8878;-33.370;-70.552;2022-10-03T04:50:49;4.60;;;1.87;;
17520;SDS011;8878;-33.370;-70.552;2022-10-03T04:53:33;2.85;;;2.22;;
17520;SDS011;8878;-33.370;-70.552;2022-10-03T04:56:21;3.20;;;1.95;;
17520;SDS011;8878;-33.370;-70.552;2022-10-03T04:59:01;2.85;;;1.92;;
17520;SDS011;8878;-33.370;-70.552;2022-10-03T05:01:39;4.00;;;2.45;;
17520;SDS011;8878;-33.370;-70.552;2022-10-03T05:04:23;2.20;;;1.75;;
17520;SDS011;8878;-33.370;-70.552;2022-10-03T05:06:59;4.82;;;2.20;;
17520;SDS011;8878;-33.370;-70.552;2022-10-03T05:09:36;5.13;;;2.00;;
17520;SDS011;8878;-33.370;-70.552;2022-10-03T05:12:13;6.35;;;2.00;;
17520;SDS011;8878;-33.370;-70.552;2022-10-03T05:14:57;3.63;;;2.75;;
17520;SDS011;8878;-33.370;-70.552;2022-10-03T05:17:38;5.85;;;3.08;;
17520;SDS011;8878;-33.370;-70.552;2022-10-03T05:20:25;3.78;;;2.97;;
17520;SDS011;8878;-33.370;-70.552;2022-10-03T05:23:10;8.30;;;2.85;;
17520;SDS011;8878;-33.370;-70.552;2022-10-03T05:25:48;3.70;;;2.05;;
17520;SDS011;8878;-33.370;-70.552;2022-10-03T05:28:32;3.22;;;2.53;;
17520;SDS011;8878;-33.370;-70.552;2022-10-03T05:31:15;7.55;;;2.83;;
17520;SDS011;8878;-33.370;-70.552;2022-10-03T05:33:58;6.27;;;2.23;;
17520;SDS011;8878;-33.370;-70.552;2022-10-03T05:36:44;3.33;;;3.03;;
17520;SDS011;8878;-33.370;-70.552;2022-10-03T05:39:29;5.00;;;2.43;;
17520;SDS011;8878;-33.370;-70.552;2022-10-03T05:45:04;2.88;;;2.35;;
17520;SDS011;8878;-33.370;-70.552;2022-10-03T05:47:49;7.15;;;2.72;;
17520;SDS011;8878;-33.370;-70.552;2022-10-03T05:50:29;3.77;;;2.13;;
17520;SDS011;8878;-33.370;-70.552;2022-10-03T05:53:32;2.65;;;2.42;;
17520;SDS011;8878;-33.370;-70.552;2022-10-03T05:56:22;4.50;;;2.38;;
17520;SDS011;8878;-33.370;-70.552;2022-10-03T05:59:18;2.53;;;1.93;;
17520;SDS011;8878;-33.370;-70.552;2022-10-03T06:05:29;6.73;;;3.07;;
17520;SDS011;8878;-33.370;-70.552;2022-10-03T06:08:15;3.50;;;2.53;;
17520;SDS011;8878;-33.370;-70.552;2022-10-03T06:11:09;5.60;;;2.40;;
17520;SDS011;8878;-33.370;-70.552;2022-10-03T06:13:55;8.43;;;2.80;;
17520;SDS011;8878;-33.370;-70.552;2022-10-03T06:16:43;4.00;;;2.13;;
17520;SDS011;8878;-33.370;-70.552;2022-10-03T06:19:29;3.30;;;1.67;;
17520;SDS011;8878;-33.370;-70.552;2022-10-03T06:28:40;5.90;;;2.67;;
17520;SDS011;8878;-33.370;-70.552;2022-10-03T06:31:54;3.73;;;2.30;;
17520;SDS011;8878;-33.370;-70.552;2022-10-03T06:37:54;4.33;;;1.93;;
17520;SDS011;8878;-33.370;-70.552;2022-10-03T06:40:51;4.30;;;2.83;;
17520;SDS011;8878;-33.370;-70.552;2022-10-03T06:43:58;5.27;;;2.77;;
17520;SDS011;8878;-33.370;-70.552;2022-10-03T06:46:44;3.23;;;2.87;;
17520;SDS011;8878;-33.370;-70.552;2022-10-03T06:49:51;11.07;;;2.20;;
17520;SDS011;8878;-33.370;-70.552;2022-10-03T06:52:52;4.47;;;2.10;;
17520;SDS011;8878;-33.370;-70.552;2022-10-03T07:01:55;6.87;;;2.00;;
17520;SDS011;8878;-33.370;-70.552;2022-10-03T07:04:48;9.93;;;3.07;;
17520;SDS011;8878;-33.370;-70.552;2022-10-03T07:07:52;4.43;;;2.10;;
17520;SDS011;8878;-33.370;-70.552;2022-10-03T07:17:04;3.30;;;2.63;;
17520;SDS011;8878;-33.370;-70.552;2022-10-03T07:31:47;3.07;;;2.47;;
17520;SDS011;8878;-33.370;-70.552;2022-10-03T07:34:49;8.00;;;3.53;;
17520;SDS011;8878;-33.370;-70.552;2022-10-03T07:37:42;5.23;;;3.37;;
17520;SDS011;8878;-33.370;-70.552;2022-10-03T07:40:53;6.53;;;2.90;;
17520;SDS011;8878;-33.370;-70.552;2022-10-03T07:43:57;2.47;;;1.93;;
17520;SDS011;8878;-33.370;-70.552;2022-10-03T07:49:53;4.07;;;2.67;;
17520;SDS011;8878;-33.370;-70.552;2022-10-03T07:52:56;2.10;;;1.93;;
17520;SDS011;8878;-33.370;-70.552;2022-10-03T07:58:35;5.23;;;2.33;;
17520;SDS011;8878;-33.370;-70.552;2022-10-03T08:01:22;10.17;;;3.13;;
17520;SDS011;8878;-33.370;-70.552;2022-10-03T08:07:22;17.13;;;2.97;;
17520;SDS011;8878;-33.370;-70.552;2022-10-03T08:10:02;3.20;;;2.40;;
17520;SDS011;8878;-33.370;-70.552;2022-10-03T08:15:46;2.87;;;1.97;;
17520;SDS011;8878;-33.370;-70.552;2022-10-03T08:21:47;5.43;;;3.17;;
17520;SDS011;8878;-33.370;-70.552;2022-10-03T08:24:34;4.83;;;2.83;;
17520;SDS011;8878;-33.370;-70.552;2022-10-03T08:27:23;4.87;;;1.60;;
17520;SDS011;8878;-33.370;-70.552;2022-10-03T08:32:59;4.67;;;2.57;;
17520;SDS011;8878;-33.370;-70.552;2022-10-03T08:36:05;4.17;;;1.70;;
17520;SDS011;8878;-33.370;-70.552;2022-10-03T08:38:59;6.53;;;2.97;;
17520;SDS011;8878;-33.370;-70.552;2022-10-03T08:45:09;3.13;;;2.50;;
17520;SDS011;8878;-33.370;-70.552;2022-10-03T08:51:04;6.53;;;2.73;;
17520;SDS011;8878;-33.370;-70.552;2022-10-03T08:54:08;3.60;;;2.67;;
17520;SDS011;8878;-33.370;-70.552;2022-10-03T08:57:08;5.60;;;3.10;;
17520;SDS011;8878;-33.370;-70.552;2022-10-03T09:00:00;3.30;;;2.03;;
17520;SDS011;8878;-33.370;-70.552;2022-10-03T09:02:56;5.83;;;2.70;;
17520;SDS011;8878;-33.370;-70.552;2022-10-03T09:05:59;6.23;;;2.90;;
17520;SDS011;8878;-33.370;-70.552;2022-10-03T09:09:17;3.47;;;3.17;;
17520;SDS011;8878;-33.370;-70.552;2022-10-03T09:15:01;4.60;;;3.37;;
17520;SDS011;8878;-33.370;-70.552;2022-10-03T09:18:00;6.77;;;2.37;;
17520;SDS011;8878;-33.370;-70.552;2022-10-03T09:20:51;3.27;;;2.93;;
17520;SDS011;8878;-33.370;-70.552;2022-10-03T09:24:03;5.63;;;2.90;;
17520;SDS011;8878;-33.370;-70.552;2022-10-03T09:39:54;7.40;;;3.43;;
17520;SDS011;8878;-33.370;-70.552;2022-10-03T09:42:47;7.40;;;3.37;;
17520;SDS011;8878;-33.370;-70.552;2022-10-03T09:46:12;5.40;;;3.07;;
17520;SDS011;8878;-33.370;-70.552;2022-10-03T09:49:21;6.47;;;3.50;;
17520;SDS011;8878;-33.370;-70.552;2022-10-03T09:52:14;5.57;;;2.50;;
17520;SDS011;8878;-33.370;-70.552;2022-10-03T09:55:01;4.23;;;3.27;;
17520;SDS011;8878;-33.370;-70.552;2022-10-03T09:57:56;7.63;;;4.17;;
17520;SDS011;8878;-33.370;-70.552;2022-10-03T10:01:01;5.43;;;3.17;;
17520;SDS011;8878;-33.370;-70.552;2022-10-03T10:03:52;5.03;;;3.30;;
17520;SDS011;8878;-33.370;-70.552;2022-10-03T10:07:06;5.83;;;3.13;;
17520;SDS011;8878;-33.370;-70.552;2022-10-03T10:13:13;5.53;;;3.90;;
17520;SDS011;8878;-33.370;-70.552;2022-10-03T10:16:04;8.53;;;4.10;;
17520;SDS011;8878;-33.370;-70.552;2022-10-03T10:22:06;4.77;;;2.93;;
17520;SDS011;8878;-33.370;-70.552;2022-10-03T10:25:07;11.10;;;3.53;;
17520;SDS011;8878;-33.370;-70.552;2022-10-03T10:31:00;6.80;;;2.23;;
17520;SDS011;8878;-33.370;-70.552;2022-10-03T10:34:08;6.57;;;2.33;;
17520;SDS011;8878;-33.370;-70.552;2022-10-03T10:43:12;5.27;;;3.20;;
17520;SDS011;8878;-33.370;-70.552;2022-10-03T10:46:22;5.43;;;3.80;;
17520;SDS011;8878;-33.370;-70.552;2022-10-03T10:55:41;9.97;;;3.67;;
17520;SDS011;8878;-33.370;-70.552;2022-10-03T10:59:02;9.73;;;3.97;;
17520;SDS011;8878;-33.370;-70.552;2022-10-03T11:08:31;7.93;;;2.93;;
17520;SDS011;8878;-33.370;-70.552;2022-10-03T11:11:31;3.70;;;3.33;;
17520;SDS011;8878;-33.370;-70.552;2022-10-03T11:14:34;5.97;;;3.20;;
17520;SDS011;8878;-33.370;-70.552;2022-10-03T11:17:40;8.93;;;3.97;;
17520;SDS011;8878;-33.370;-70.552;2022-10-03T11:20:47;5.33;;;4.00;;
17520;SDS011;8878;-33.370;-70.552;2022-10-03T11:36:34;9.47;;;3.67;;
17520;SDS011;8878;-33.370;-70.552;2022-10-03T11:39:27;6.70;;;3.90;;
17520;SDS011;8878;-33.370;-70.552;2022-10-03T11:42:10;8.03;;;3.70;;
17520;SDS011;8878;-33.370;-70.552;2022-10-03T11:44:58;8.97;;;5.33;;
17520;SDS011;8878;-33.370;-70.552;2022-10-03T11:47:36;7.40;;;5.67;;
17520;SDS011;8878;-33.370;-70.552;2022-10-03T11:50:20;11.63;;;5.47;;
17520;SDS011;8878;-33.370;-70.552;2022-10-03T11:59:11;13.40;;;5.73;;
17520;SDS011;8878;-33.370;-70.552;2022-10-03T12:02:06;12.20;;;4.87;;
17520;SDS011;8878;-33.370;-70.552;2022-10-03T12:04:47;18.03;;;6.20;;
17520;SDS011;8878;-33.370;-70.552;2022-10-03T12:07:31;15.47;;;5.43;;
17520;SDS011;8878;-33.370;-70.552;2022-10-03T12:10:31;11.67;;;4.60;;
17520;SDS011;8878;-33.370;-70.552;2022-10-03T12:13:09;8.10;;;4.93;;
17520;SDS011;8878;-33.370;-70.552;2022-10-03T12:15:44;11.00;;;4.37;;
17520;SDS011;8878;-33.370;-70.552;2022-10-03T12:18:17;14.80;;;6.63;;
17520;SDS011;8878;-33.370;-70.552;2022-10-03T12:21:06;12.37;;;7.77;;
17520;SDS011;8878;-33.370;-70.552;2022-10-03T12:23:48;12.57;;;6.77;;
17520;SDS011;8878;-33.370;-70.552;2022-10-03T12:26:38;17.70;;;7.77;;
17520;SDS011;8878;-33.370;-70.552;2022-10-03T12:29:17;24.20;;;9.13;;
17520;SDS011;8878;-33.370;-70.552;2022-10-03T12:31:57;14.00;;;6.27;;
17520;SDS011;8878;-33.370;-70.552;2022-10-03T12:34:39;14.20;;;6.63;;
17520;SDS011;8878;-33.370;-70.552;2022-10-03T12:40:15;17.13;;;7.23;;
17520;SDS011;8878;-33.370;-70.552;2022-10-03T12:42:54;22.00;;;7.27;;
17520;SDS011;8878;-33.370;-70.552;2022-10-03T12:45:32;8.90;;;5.90;;
17520;SDS011;8878;-33.370;-70.552;2022-10-03T12:48:14;20.20;;;9.77;;
17520;SDS011;8878;-33.370;-70.552;2022-10-03T12:50:59;31.27;;;6.07;;
17520;SDS011;8878;-33.370;-70.552;2022-10-03T12:53:38;12.37;;;5.90;;
17520;SDS011;8878;-33.370;-70.552;2022-10-03T12:56:19;12.93;;;5.20;;
17520;SDS011;8878;-33.370;-70.552;2022-10-03T12:59:01;14.30;;;5.77;;
17520;SDS011;8878;-33.370;-70.552;2022-10-03T13:01:45;12.27;;;4.23;;
17520;SDS011;8878;-33.370;-70.552;2022-10-03T13:04:30;13.07;;;4.63;;
17520;SDS011;8878;-33.370;-70.552;2022-10-03T13:07:12;6.83;;;4.47;;
17520;SDS011;8878;-33.370;-70.552;2022-10-03T13:09:57;4.10;;;3.70;;
17520;SDS011;8878;-33.370;-70.552;2022-10-03T13:12:43;12.60;;;4.10;;
17520;SDS011;8878;-33.370;-70.552;2022-10-03T13:21:26;9.73;;;4.37;;
17520;SDS011;8878;-33.370;-70.552;2022-10-03T13:24:10;7.90;;;4.97;;
17520;SDS011;8878;-33.370;-70.552;2022-10-03T13:26:52;14.37;;;4.67;;
17520;SDS011;8878;-33.370;-70.552;2022-10-03T13:29:30;6.07;;;3.80;;
17520;SDS011;8878;-33.370;-70.552;2022-10-03T13:32:12;7.63;;;4.00;;
17520;SDS011;8878;-33.370;-70.552;2022-10-03T13:38:15;9.63;;;5.03;;
17520;SDS011;8878;-33.370;-70.552;2022-10-03T13:41:04;10.43;;;4.03;;
17520;SDS011;8878;-33.370;-70.552;2022-10-03T13:53:56;14.47;;;5.13;;
17520;SDS011;8878;-33.370;-70.552;2022-10-03T13:56:33;13.20;;;5.30;;
17520;SDS011;8878;-33.370;-70.552;2022-10-03T14:02:19;8.10;;;4.43;;
17520;SDS011;8878;-33.370;-70.552;2022-10-03T14:05:16;11.50;;;6.17;;
17520;SDS011;8878;-33.370;-70.552;2022-10-03T14:08:08;10.90;;;5.00;;
17520;SDS011;8878;-33.370;-70.552;2022-10-03T14:14:10;15.77;;;6.43;;
17520;SDS011;8878;-33.370;-70.552;2022-10-03T14:16:52;17.53;;;6.07;;
17520;SDS011;8878;-33.370;-70.552;2022-10-03T14:19:30;11.03;;;5.03;;
17520;SDS011;8878;-33.370;-70.552;2022-10-03T14:25:00;10.20;;;4.77;;
17520;SDS011;8878;-33.370;-70.552;2022-10-03T14:27:46;7.57;;;4.57;;
17520;SDS011;8878;-33.370;-70.552;2022-10-03T14:30:20;16.67;;;6.93;;
17520;SDS011;8878;-33.370;-70.552;2022-10-03T14:32:58;17.87;;;5.80;;
17520;SDS011;8878;-33.370;-70.552;2022-10-03T14:35:37;17.73;;;5.07;;
17520;SDS011;8878;-33.370;-70.552;2022-10-03T14:38:26;12.40;;;5.93;;
17520;SDS011;8878;-33.370;-70.552;2022-10-03T14:44:17;7.40;;;5.50;;
17520;SDS011;8878;-33.370;-70.552;2022-10-03T14:46:51;14.73;;;7.43;;
17520;SDS011;8878;-33.370;-70.552;2022-10-03T14:49:26;14.23;;;5.67;;
17520;SDS011;8878;-33.370;-70.552;2022-10-03T14:52:01;11.90;;;4.73;;
17520;SDS011;8878;-33.370;-70.552;2022-10-03T14:54:33;14.33;;;6.63;;
17520;SDS011;8878;-33.370;-70.552;2022-10-03T14:57:12;8.67;;;4.33;;
17520;SDS011;8878;-33.370;-70.552;2022-10-03T15:00:00;13.97;;;5.03;;
17520;SDS011;8878;-33.370;-70.552;2022-10-03T15:02:32;9.00;;;4.90;;
17520;SDS011;8878;-33.370;-70.552;2022-10-03T15:05:07;13.97;;;7.03;;
17520;SDS011;8878;-33.370;-70.552;2022-10-03T15:07:41;16.20;;;7.67;;
17520;SDS011;8878;-33.370;-70.552;2022-10-03T15:10:13;14.10;;;5.90;;
17520;SDS011;8878;-33.370;-70.552;2022-10-03T15:12:45;13.07;;;6.00;;
17520;SDS011;8878;-33.370;-70.552;2022-10-03T15:15:22;12.70;;;5.83;;
17520;SDS011;8878;-33.370;-70.552;2022-10-03T15:17:56;10.97;;;5.23;;
17520;SDS011;8878;-33.370;-70.552;2022-10-03T15:20:31;11.03;;;5.93;;
17520;SDS011;8878;-33.370;-70.552;2022-10-03T15:23:04;14.03;;;5.87;;
17520;SDS011;8878;-33.370;-70.552;2022-10-03T15:25:35;10.27;;;5.47;;
17520;SDS011;8878;-33.370;-70.552;2022-10-03T15:28:07;11.53;;;5.17;;
17520;SDS011;8878;-33.370;-70.552;2022-10-03T15:30:41;12.87;;;6.60;;
17520;SDS011;8878;-33.370;-70.552;2022-10-03T15:33:13;13.33;;;6.00;;
17520;SDS011;8878;-33.370;-70.552;2022-10-03T15:35:45;12.47;;;6.50;;
17520;SDS011;8878;-33.370;-70.552;2022-10-03T15:38:21;16.80;;;5.93;;
17520;SDS011;8878;-33.370;-70.552;2022-10-03T15:40:53;9.43;;;4.40;;
17520;SDS011;8878;-33.370;-70.552;2022-10-03T15:43:36;11.53;;;4.57;;
17520;SDS011;8878;-33.370;-70.552;2022-10-03T15:46:16;11.87;;;6.20;;
17520;SDS011;8878;-33.370;-70.552;2022-10-03T15:48:50;7.97;;;4.87;;
17520;SDS011;8878;-33.370;-70.552;2022-10-03T15:51:21;12.87;;;4.00;;
17520;SDS011;8878;-33.370;-70.552;2022-10-03T15:53:55;15.30;;;5.07;;
17520;SDS011;8878;-33.370;-70.552;2022-10-03T15:56:28;13.37;;;5.63;;
17520;SDS011;8878;-33.370;-70.552;2022-10-03T15:59:04;14.30;;;6.23;;
17520;SDS011;8878;-33.370;-70.552;2022-10-03T16:01:39;8.63;;;4.43;;
17520;SDS011;8878;-33.370;-70.552;2022-10-03T16:04:16;12.57;;;6.57;;
17520;SDS011;8878;-33.370;-70.552;2022-10-03T16:06:48;8.57;;;4.80;;
17520;SDS011;8878;-33.370;-70.552;2022-10-03T16:09:29;18.00;;;5.13;;
17520;SDS011;8878;-33.370;-70.552;2022-10-03T16:12:13;11.07;;;5.77;;
17520;SDS011;8878;-33.370;-70.552;2022-10-03T16:15:07;13.30;;;4.90;;
17520;SDS011;8878;-33.370;-70.552;2022-10-03T16:17:48;10.60;;;4.73;;
17520;SDS011;8878;-33.370;-70.552;2022-10-03T16:20:22;10.57;;;5.47;;
17520;SDS011;8878;-33.370;-70.552;2022-10-03T16:22:57;16.13;;;5.50;;
17520;SDS011;8878;-33.370;-70.552;2022-10-03T16:25:37;17.37;;;7.23;;
17520;SDS011;8878;-33.370;-70.552;2022-10-03T16:28:11;11.30;;;4.80;;
17520;SDS011;8878;-33.370;-70.552;2022-10-03T16:30:45;15.53;;;6.27;;
17520;SDS011;8878;-33.370;-70.552;2022-10-03T16:33:22;9.33;;;5.90;;
17520;SDS011;8878;-33.370;-70.552;2022-10-03T16:35:56;13.60;;;6.40;;
17520;SDS011;8878;-33.370;-70.552;2022-10-03T16:38:30;7.27;;;5.40;;
17520;SDS011;8878;-33.370;-70.552;2022-10-03T16:41:03;8.53;;;4.47;;
17520;SDS011;8878;-33.370;-70.552;2022-10-03T16:43:42;13.53;;;5.80;;
17520;SDS011;8878;-33.370;-70.552;2022-10-03T16:46:24;6.77;;;4.23;;
17520;SDS011;8878;-33.370;-70.552;2022-10-03T16:48:57;7.40;;;4.03;;
17520;SDS011;8878;-33.370;-70.552;2022-10-03T16:51:50;8.93;;;4.23;;
17520;SDS011;8878;-33.370;-70.552;2022-10-03T16:54:26;11.80;;;4.40;;
17520;SDS011;8878;-33.370;-70.552;2022-10-03T16:56:58;7.37;;;4.47;;
17520;SDS011;8878;-33.370;-70.552;2022-10-03T16:59:30;5.33;;;3.67;;
17520;SDS011;8878;-33.370;-70.552;2022-10-03T17:02:02;9.83;;;5.13;;
17520;SDS011;8878;-33.370;-70.552;2022-10-03T17:04:36;13.10;;;4.23;;
17520;SDS011;8878;-33.370;-70.552;2022-10-03T17:07:11;10.50;;;4.43;;
17520;SDS011;8878;-33.370;-70.552;2022-10-03T17:09:44;9.73;;;4.07;;
17520;SDS011;8878;-33.370;-70.552;2022-10-03T17:12:14;7.93;;;4.57;;
17520;SDS011;8878;-33.370;-70.552;2022-10-03T17:14:47;5.60;;;3.27;;
17520;SDS011;8878;-33.370;-70.552;2022-10-03T17:17:20;7.20;;;4.00;;
17520;SDS011;8878;-33.370;-70.552;2022-10-03T17:19:59;12.47;;;4.50;;
17520;SDS011;8878;-33.370;-70.552;2022-10-03T17:22:32;9.20;;;3.20;;
17520;SDS011;8878;-33.370;-70.552;2022-10-03T17:25:29;4.37;;;2.97;;
17520;SDS011;8878;-33.370;-70.552;2022-10-03T17:28:09;4.43;;;3.23;;
17520;SDS011;8878;-33.370;-70.552;2022-10-03T17:30:43;6.20;;;3.07;;
17520;SDS011;8878;-33.370;-70.552;2022-10-03T17:33:16;9.10;;;3.30;;
17520;SDS011;8878;-33.370;-70.552;2022-10-03T17:35:56;6.93;;;3.83;;
17520;SDS011;8878;-33.370;-70.552;2022-10-03T17:38:37;12.83;;;3.97;;
17520;SDS011;8878;-33.370;-70.552;2022-10-03T17:41:13;7.77;;;4.20;;
17520;SDS011;8878;-33.370;-70.552;2022-10-03T17:43:47;15.17;;;4.00;;
17520;SDS011;8878;-33.370;-70.552;2022-10-03T17:46:28;6.63;;;3.63;;
17520;SDS011;8878;-33.370;-70.552;2022-10-03T17:49:16;6.07;;;3.30;;
17520;SDS011;8878;-33.370;-70.552;2022-10-03T17:51:49;6.07;;;4.27;;
17520;SDS011;8878;-33.370;-70.552;2022-10-03T17:54:23;4.37;;;2.90;;
17520;SDS011;8878;-33.370;-70.552;2022-10-03T17:56:57;5.80;;;2.80;;
17520;SDS011;8878;-33.370;-70.552;2022-10-03T17:59:33;5.50;;;2.97;;
17520;SDS011;8878;-33.370;-70.552;2022-10-03T18:02:14;3.67;;;2.83;;
17520;SDS011;8878;-33.370;-70.552;2022-10-03T18:04:48;3.73;;;3.43;;
17520;SDS011;8878;-33.370;-70.552;2022-10-03T18:07:28;4.40;;;3.43;;
17520;SDS011;8878;-33.370;-70.552;2022-10-03T18:09:58;4.43;;;2.77;;
17520;SDS011;8878;-33.370;-70.552;2022-10-03T18:12:29;5.83;;;3.63;;
17520;SDS011;8878;-33.370;-70.552;2022-10-03T18:15:21;6.17;;;3.43;;
17520;SDS011;8878;-33.370;-70.552;2022-10-03T18:18:22;5.40;;;3.27;;
17520;SDS011;8878;-33.370;-70.552;2022-10-03T18:21:13;4.13;;;3.20;;
17520;SDS011;8878;-33.370;-70.552;2022-10-03T18:24:00;6.63;;;3.60;;
17520;SDS011;8878;-33.370;-70.552;2022-10-03T18:26:43;4.77;;;2.53;;
17520;SDS011;8878;-33.370;-70.552;2022-10-03T18:29:18;10.40;;;5.07;;
17520;SDS011;8878;-33.370;-70.552;2022-10-03T18:31:55;4.47;;;3.63;;
17520;SDS011;8878;-33.370;-70.552;2022-10-03T18:34:32;6.77;;;2.83;;
17520;SDS011;8878;-33.370;-70.552;2022-10-03T18:37:15;4.47;;;3.33;;
17520;SDS011;8878;-33.370;-70.552;2022-10-03T18:40:02;6.27;;;3.90;;
17520;SDS011;8878;-33.370;-70.552;2022-10-03T18:42:40;5.10;;;3.60;;
17520;SDS011;8878;-33.370;-70.552;2022-10-03T18:45:16;5.77;;;3.40;;
17520;SDS011;8878;-33.370;-70.552;2022-10-03T18:47:50;4.80;;;3.17;;
17520;SDS011;8878;-33.370;-70.552;2022-10-03T18:50:24;6.20;;;2.90;;
17520;SDS011;8878;-33.370;-70.552;2022-10-03T18:53:12;6.47;;;3.37;;
17520;SDS011;8878;-33.370;-70.552;2022-10-03T18:55:52;6.90;;;4.23;;
17520;SDS011;8878;-33.370;-70.552;2022-10-03T18:58:27;6.83;;;4.07;;
17520;SDS011;8878;-33.370;-70.552;2022-10-03T19:01:00;6.07;;;3.20;;
17520;SDS011;8878;-33.370;-70.552;2022-10-03T19:03:33;11.67;;;4.57;;
17520;SDS011;8878;-33.370;-70.552;2022-10-03T19:06:06;8.70;;;4.90;;
17520;SDS011;8878;-33.370;-70.552;2022-10-03T19:08:47;10.47;;;4.60;;
17520;SDS011;8878;-33.370;-70.552;2022-10-03T19:11:22;11.07;;;4.07;;
17520;SDS011;8878;-33.370;-70.552;2022-10-03T19:13:58;10.00;;;4.83;;
17520;SDS011;8878;-33.370;-70.552;2022-10-03T19:16:51;7.37;;;3.97;;
17520;SDS011;8878;-33.370;-70.552;2022-10-03T19:19:43;8.67;;;3.57;;
17520;SDS011;8878;-33.370;-70.552;2022-10-03T19:22:21;8.57;;;4.60;;
17520;SDS011;8878;-33.370;-70.552;2022-10-03T19:24:55;6.50;;;3.77;;